Time;durP1;ratioP1;P1;durP2;ratioP2;P2;SDS_P1;SDS_P2;PMS_P1;PMS_P2;Temp;Humidity;BMP_temperature;BMP_pressure;BME280_temperature;BME280_humidity;BME280_pressure;Samples;Min_cycle;Max_cycle;Signal;HPM_P1;HPM_P2
2022/06/05 00:01:36;;;;;;;;;;;10.10;99.90;;;;;;5016500;28;19924;-75
2022/06/05 00:04:08;;;;;;;;;;;10.10;99.90;;;;;;5045359;28;19953;-78
2022/06/05 00:06:37;;;;;;;;;;;10.10;99.90;;;;;;5018871;28;19917;-76
2022/06/05 00:09:06;;;;;;;;;;;10.10;99.90;;;;;;5020195;28;19960;-78
2022/06/05 00:11:38;;;;;;;;;;;10.10;99.90;;;;;;5023601;28;19917;-75
2022/06/05 00:14:04;;;;;;;;;;;10.20;99.90;;;;;;5024759;28;19924;-76
2022/06/05 00:16:35;;;;;;;;;;;10.10;99.90;;;;;;5036448;28;19923;-75
2022/06/05 00:19:02;;;;;;;;;;;10.10;99.90;;;;;;5036179;28;19916;-76
2022/06/05 00:21:28;;;;;;;;;;;10.10;99.90;;;;;;5022879;28;19916;-74
2022/06/05 00:23:53;;;;;;;;;;;10.10;99.90;;;;;;5053151;28;20393;-77
2022/06/05 00:26:38;;;;;;;;;;;10.10;99.90;;;;;;5016893;28;19916;-74
2022/06/05 00:29:03;;;;;;;;;;;10.10;99.90;;;;;;5027107;28;19970;-77
2022/06/05 00:31:40;;;;;;;;;;;10.10;99.90;;;;;;5052555;28;19920;-79
2022/06/05 00:34:06;;;;;;;;;;;10.10;99.90;;;;;;5023187;28;20064;-79
2022/06/05 00:36:44;;;;;;;;;;;10.10;99.90;;;;;;5068077;28;19916;-78
2022/06/05 00:39:13;;;;;;;;;;;10.10;99.90;;;;;;5021515;28;20024;-75
2022/06/05 00:41:46;;;;;;;;;;;10.10;99.90;;;;;;5015932;28;20001;-76
2022/06/05 00:44:14;;;;;;;;;;;10.10;99.90;;;;;;5049312;28;20012;-77
2022/06/05 00:46:41;;;;;;;;;;;10.20;99.90;;;;;;5025652;28;19921;-74
2022/06/05 00:49:07;;;;;;;;;;;10.20;99.90;;;;;;5048931;28;19952;-75
2022/06/05 00:51:33;;;;;;;;;;;10.20;99.90;;;;;;5015841;28;20374;-78
2022/06/05 00:53:59;;;;;;;;;;;10.20;99.90;;;;;;5016166;28;19917;-77
2022/06/05 00:56:25;;;;;;;;;;;10.20;99.90;;;;;;5024938;28;19974;-78
2022/06/05 00:58:51;;;;;;;;;;;10.20;99.90;;;;;;5005246;28;19917;-76
2022/06/05 01:01:17;;;;;;;;;;;10.20;99.90;;;;;;5041228;28;19922;-78
2022/06/05 01:03:42;;;;;;;;;;;10.20;99.90;;;;;;5056115;28;19920;-77
2022/06/05 01:06:08;;;;;;;;;;;10.20;99.90;;;;;;5043324;28;19939;-77
2022/06/05 01:08:34;;;;;;;;;;;10.30;99.90;;;;;;5032312;28;20006;-79
2022/06/05 01:11:02;;;;;;;;;;;10.20;99.90;;;;;;5032218;28;19917;-78
2022/06/05 01:13:31;;;;;;;;;;;10.30;99.90;;;;;;5033708;28;19964;-74
2022/06/05 01:16:15;;;;;;;;;;;10.30;99.90;;;;;;5035744;28;19917;-77
2022/06/05 01:18:54;;;;;;;;;;;10.30;99.90;;;;;;5005146;28;20383;-74
2022/06/05 01:21:35;;;;;;;;;;;10.30;99.90;;;;;;5021453;28;19967;-76
2022/06/05 01:24:10;;;;;;;;;;;10.30;99.90;;;;;;5039510;28;19932;-76
2022/06/05 01:26:36;;;;;;;;;;;10.30;99.90;;;;;;5043279;28;20432;-79
2022/06/05 01:29:07;;;;;;;;;;;10.30;99.90;;;;;;5051610;28;20000;-78
2022/06/05 01:31:39;;;;;;;;;;;10.30;99.90;;;;;;5013423;28;19923;-75
2022/06/05 01:34:08;;;;;;;;;;;10.30;99.90;;;;;;5048062;28;20712;-78
2022/06/05 01:36:36;;;;;;;;;;;10.30;99.90;;;;;;5021938;28;19917;-78
2022/06/05 01:39:04;;;;;;;;;;;10.30;99.90;;;;;;5069511;28;20002;-78
2022/06/05 01:41:42;;;;;;;;;;;10.30;99.90;;;;;;5010541;28;19924;-78
2022/06/05 01:44:10;;;;;;;;;;;10.20;99.90;;;;;;5058916;28;20303;-78
2022/06/05 01:46:36;;;;;;;;;;;10.30;99.90;;;;;;5005254;28;19925;-76
2022/06/05 01:49:15;;;;;;;;;;;10.30;99.90;;;;;;5047786;28;19924;-79
2022/06/05 01:51:45;;;;;;;;;;;10.30;99.90;;;;;;4995064;28;19917;-80
2022/06/05 01:54:14;;;;;;;;;;;10.30;99.90;;;;;;5043939;28;19921;-77
2022/06/05 01:56:42;;;;;;;;;;;10.30;99.90;;;;;;5047908;28;20003;-78
2022/06/05 01:59:14;;;;;;;;;;;10.40;99.90;;;;;;5028320;28;19917;-78
2022/06/05 02:01:41;;;;;;;;;;;10.30;99.90;;;;;;5015087;28;19917;-76
2022/06/05 02:04:17;;;;;;;;;;;10.30;99.90;;;;;;5065818;28;19952;-78
2022/06/05 02:06:48;;;;;;;;;;;10.40;99.90;;;;;;5019385;28;19924;-77
2022/06/05 02:09:16;;;;;;;;;;;10.40;99.90;;;;;;5010462;28;19917;-75
2022/06/05 02:11:42;;;;;;;;;;;10.40;99.90;;;;;;5025216;28;19970;-74
2022/06/05 02:14:08;;;;;;;;;;;10.40;99.90;;;;;;5034785;28;20010;-74
2022/06/05 02:16:36;;;;;;;;;;;10.40;99.90;;;;;;5017885;28;19921;-76
2022/06/05 02:19:03;;;;;;;;;;;10.40;99.90;;;;;;5033585;28;19917;-74
2022/06/05 02:21:29;;;;;;;;;;;10.40;99.90;;;;;;5032121;28;20365;-76
2022/06/05 02:23:56;;;;;;;;;;;10.50;99.90;;;;;;5056538;28;19970;-77
2022/06/05 02:26:21;;;;;;;;;;;10.50;99.90;;;;;;5031420;28;19975;-78
2022/06/05 02:28:47;;;;;;;;;;;10.50;99.90;;;;;;5021951;28;19957;-77
2022/06/05 02:31:20;;;;;;;;;;;10.50;99.90;;;;;;5047031;28;19917;-75
2022/06/05 02:33:52;;;;;;;;;;;10.50;99.90;;;;;;5009220;28;19925;-75
2022/06/05 02:36:26;;;;;;;;;;;10.50;99.90;;;;;;5035718;28;19917;-75
2022/06/05 02:38:52;;;;;;;;;;;10.50;99.90;;;;;;5034753;28;19920;-79
2022/06/05 02:41:28;;;;;;;;;;;10.50;99.90;;;;;;5034546;28;19942;-77
2022/06/05 02:46:44;;;;;;;;;;;10.60;99.90;;;;;;5024368;28;19961;-76
2022/06/05 02:49:17;;;;;;;;;;;10.60;99.90;;;;;;5046167;28;19921;-78
2022/06/05 02:51:43;;;;;;;;;;;10.60;99.90;;;;;;5055109;28;19916;-79
2022/06/05 02:54:17;;;;;;;;;;;10.60;99.90;;;;;;5030706;28;20423;-75
2022/06/05 02:56:42;;;;;;;;;;;10.60;99.90;;;;;;5046887;28;19917;-79
2022/06/05 02:59:08;;;;;;;;;;;10.60;99.90;;;;;;5027509;28;19996;-75
2022/06/05 03:04:17;;;;;;;;;;;10.60;99.90;;;;;;5014525;28;19921;-76
2022/06/05 03:06:43;;;;;;;;;;;10.70;99.90;;;;;;5060029;28;20344;-75
2022/06/05 03:09:09;;;;;;;;;;;10.70;99.90;;;;;;5017565;28;20325;-77
2022/06/05 03:11:35;;;;;;;;;;;10.80;99.90;;;;;;5024697;28;19916;-74
2022/06/05 03:14:00;;;;;;;;;;;10.80;99.90;;;;;;5017043;28;20293;-77
2022/06/05 03:16:26;;;;;;;;;;;10.80;99.90;;;;;;5022623;28;19959;-79
2022/06/05 03:18:52;;;;;;;;;;;10.80;99.90;;;;;;5017313;28;19921;-78
2022/06/05 03:21:18;;;;;;;;;;;10.80;99.90;;;;;;5027392;28;19979;-79
2022/06/05 03:23:43;;;;;;;;;;;10.80;99.90;;;;;;4997462;28;19925;-75
2022/06/05 03:26:09;;;;;;;;;;;10.80;99.90;;;;;;5026877;28;19916;-78
2022/06/05 03:28:35;;;;;;;;;;;10.80;99.90;;;;;;5007531;28;19920;-75
2022/06/05 03:31:03;;;;;;;;;;;10.80;99.90;;;;;;5036612;28;20508;-76
2022/06/05 03:33:29;;;;;;;;;;;10.90;99.90;;;;;;5050387;28;19916;-78
2022/06/05 03:35:54;;;;;;;;;;;10.90;99.90;;;;;;5000913;28;20504;-75
2022/06/05 03:38:20;;;;;;;;;;;10.90;99.90;;;;;;5013577;28;19935;-76
2022/06/05 03:40:45;;;;;;;;;;;11.00;99.90;;;;;;5037338;28;19923;-76
2022/06/05 03:43:11;;;;;;;;;;;11.00;99.90;;;;;;5036762;28;19925;-78
2022/06/05 03:45:37;;;;;;;;;;;11.10;99.90;;;;;;5006800;28;19924;-77
2022/06/05 03:48:03;;;;;;;;;;;11.10;99.90;;;;;;5036030;28;19924;-74
2022/06/05 03:50:28;;;;;;;;;;;11.10;99.90;;;;;;5001425;28;20262;-78
2022/06/05 03:52:54;;;;;;;;;;;11.20;99.90;;;;;;5018343;28;20000;-77
2022/06/05 03:55:21;;;;;;;;;;;11.20;99.90;;;;;;5062016;28;19970;-75
2022/06/05 03:57:46;;;;;;;;;;;11.30;99.90;;;;;;5031450;28;19917;-76
2022/06/05 04:00:13;;;;;;;;;;;11.30;99.90;;;;;;5014492;28;20541;-75
2022/06/05 04:02:39;;;;;;;;;;;11.30;99.90;;;;;;5056465;28;19968;-75
2022/06/05 04:05:05;;;;;;;;;;;11.30;99.90;;;;;;5057891;28;19917;-77
2022/06/05 04:07:31;;;;;;;;;;;11.30;99.90;;;;;;5056395;28;19924;-73
2022/06/05 04:09:56;;;;;;;;;;;11.30;99.90;;;;;;5036369;28;20414;-77
2022/06/05 04:12:22;;;;;;;;;;;11.40;99.90;;;;;;5026959;28;19917;-77
2022/06/05 04:14:47;;;;;;;;;;;11.40;99.90;;;;;;5036220;28;19923;-78
2022/06/05 04:17:13;;;;;;;;;;;11.50;99.90;;;;;;5030957;28;19924;-79
2022/06/05 04:19:39;;;;;;;;;;;11.50;99.90;;;;;;5049207;28;19987;-75
2022/06/05 04:22:04;;;;;;;;;;;11.50;99.90;;;;;;5068750;28;19931;-75
2022/06/05 04:24:30;;;;;;;;;;;11.60;99.90;;;;;;5025396;28;19979;-79
2022/06/05 04:26:56;;;;;;;;;;;11.60;99.90;;;;;;5029503;28;19917;-78
2022/06/05 04:29:22;;;;;;;;;;;11.70;99.90;;;;;;5062986;28;19917;-78
2022/06/05 04:31:48;;;;;;;;;;;11.70;99.90;;;;;;5030111;28;20296;-76
2022/06/05 04:34:15;;;;;;;;;;;11.80;99.90;;;;;;5020600;28;19917;-76
2022/06/05 04:36:41;;;;;;;;;;;11.90;99.90;;;;;;5003197;28;19921;-77
2022/06/05 04:39:13;;;;;;;;;;;11.90;99.90;;;;;;5030998;28;20274;-76
2022/06/05 04:41:39;;;;;;;;;;;12.10;99.90;;;;;;5068922;28;19917;-78
2022/06/05 04:44:06;;;;;;;;;;;12.20;99.90;;;;;;5021315;28;20019;-75
2022/06/05 04:46:32;;;;;;;;;;;12.30;99.90;;;;;;5021975;28;19925;-78
2022/06/05 04:48:58;;;;;;;;;;;12.40;99.90;;;;;;5018211;28;20058;-77
2022/06/05 04:51:23;;;;;;;;;;;12.60;99.90;;;;;;5003276;28;19917;-78
2022/06/05 04:53:50;;;;;;;;;;;12.70;99.90;;;;;;5032360;28;19971;-78
2022/06/05 04:56:18;;;;;;;;;;;12.90;99.90;;;;;;5046002;28;20012;-77
2022/06/05 04:58:44;;;;;;;;;;;13.10;99.90;;;;;;5025711;28;19917;-75
2022/06/05 05:01:29;;;;;;;;;;;13.20;99.90;;;;;;5032730;28;20887;-78
2022/06/05 05:03:57;;;;;;;;;;;13.20;99.90;;;;;;5028860;28;19987;-76
2022/06/05 05:06:24;;;;;;;;;;;13.20;99.90;;;;;;5006280;28;19917;-78
2022/06/05 05:08:50;;;;;;;;;;;13.20;99.90;;;;;;5065076;28;19917;-77
2022/06/05 05:11:16;;;;;;;;;;;13.30;99.90;;;;;;5021803;28;19917;-80
2022/06/05 05:13:41;;;;;;;;;;;13.30;99.90;;;;;;5013565;28;19924;-76
2022/06/05 05:16:07;;;;;;;;;;;13.30;99.90;;;;;;5022538;28;19917;-78
2022/06/05 05:18:33;;;;;;;;;;;13.30;99.90;;;;;;5031744;28;19917;-79
2022/06/05 05:21:06;;;;;;;;;;;13.40;99.90;;;;;;5021230;28;19960;-77
2022/06/05 05:23:32;;;;;;;;;;;13.40;99.90;;;;;;5025341;28;19921;-76
2022/06/05 05:26:05;;;;;;;;;;;13.40;99.90;;;;;;5012375;28;19949;-76
2022/06/05 05:28:30;;;;;;;;;;;13.40;99.90;;;;;;5012226;28;19967;-74
2022/06/05 05:30:56;;;;;;;;;;;13.40;99.90;;;;;;5008457;28;19916;-76
2022/06/05 05:33:21;;;;;;;;;;;13.50;99.90;;;;;;5018132;28;19924;-79
2022/06/05 05:35:47;;;;;;;;;;;13.50;99.90;;;;;;5031393;28;19917;-78
2022/06/05 05:38:12;;;;;;;;;;;13.70;99.90;;;;;;5015327;28;19956;-77
2022/06/05 05:43:22;;;;;;;;;;;14.00;99.90;;;;;;5011450;28;19921;-73
2022/06/05 05:45:49;;;;;;;;;;;14.30;99.90;;;;;;5016855;28;20289;-75
2022/06/05 05:48:14;;;;;;;;;;;14.40;99.90;;;;;;5034648;28;19922;-80
2022/06/05 05:50:44;;;;;;;;;;;14.60;99.90;;;;;;5028422;28;19928;-77
2022/06/05 05:53:10;;;;;;;;;;;14.70;99.90;;;;;;5018281;28;19964;-77
2022/06/05 05:55:35;;;;;;;;;;;14.90;99.90;;;;;;5047955;28;19917;-78
2022/06/05 05:58:01;;;;;;;;;;;15.10;99.90;;;;;;5031264;28;19985;-76
2022/06/05 06:00:27;;;;;;;;;;;15.20;99.90;;;;;;5050217;28;19924;-77
2022/06/05 06:02:52;;;;;;;;;;;15.40;99.90;;;;;;5002023;28;19928;-76
2022/06/05 06:05:18;;;;;;;;;;;15.50;99.90;;;;;;5059124;28;19972;-77
2022/06/05 06:07:44;;;;;;;;;;;15.60;99.90;;;;;;5031652;28;19996;-79
2022/06/05 06:10:10;;;;;;;;;;;15.70;99.90;;;;;;5033019;28;20294;-76
2022/06/05 06:12:36;;;;;;;;;;;15.80;99.90;;;;;;5020510;28;20321;-79
2022/06/05 06:15:02;;;;;;;;;;;15.90;99.90;;;;;;4999973;28;19972;-78
2022/06/05 06:17:28;;;;;;;;;;;15.90;99.90;;;;;;4995147;28;19972;-75
2022/06/05 06:19:54;;;;;;;;;;;16.00;99.90;;;;;;5012100;28;19917;-77
2022/06/05 06:22:19;;;;;;;;;;;16.00;99.90;;;;;;5047426;28;20004;-76
2022/06/05 06:24:45;;;;;;;;;;;16.00;99.90;;;;;;5034368;28;19967;-79
2022/06/05 06:27:11;;;;;;;;;;;16.00;99.90;;;;;;5064099;28;19917;-76
2022/06/05 06:29:36;;;;;;;;;;;16.00;99.90;;;;;;5045079;28;19916;-75
2022/06/05 06:32:03;;;;;;;;;;;16.10;99.90;;;;;;5020326;28;19917;-77
2022/06/05 06:34:28;;;;;;;;;;;16.20;99.90;;;;;;5032780;28;20013;-77
2022/06/05 06:36:54;;;;;;;;;;;16.30;99.90;;;;;;5033210;28;19952;-75
2022/06/05 06:39:20;;;;;;;;;;;16.30;99.90;;;;;;5031335;28;20374;-78
2022/06/05 06:41:46;;;;;;;;;;;16.40;99.90;;;;;;5030697;28;20011;-74
2022/06/05 06:44:11;;;;;;;;;;;16.50;99.90;;;;;;5033481;28;20008;-76
2022/06/05 06:46:37;;;;;;;;;;;16.50;99.90;;;;;;5024647;28;19925;-75
2022/06/05 06:49:03;;;;;;;;;;;16.50;99.90;;;;;;5016664;28;19986;-77
2022/06/05 06:51:29;;;;;;;;;;;16.70;99.90;;;;;;5021105;28;19920;-76
2022/06/05 06:53:54;;;;;;;;;;;16.80;99.90;;;;;;5038243;28;19924;-79
2022/06/05 06:56:23;;;;;;;;;;;16.90;99.90;;;;;;5046966;28;20017;-75
2022/06/05 06:58:49;;;;;;;;;;;17.00;99.90;;;;;;5035028;28;19917;-76
2022/06/05 07:01:14;;;;;;;;;;;17.10;99.90;;;;;;5014330;28;19917;-79
2022/06/05 07:03:41;;;;;;;;;;;17.20;99.90;;;;;;5048222;28;19980;-75
2022/06/05 07:06:08;;;;;;;;;;;17.20;99.90;;;;;;5029688;28;19917;-75
2022/06/05 07:08:34;;;;;;;;;;;17.30;99.90;;;;;;5052161;28;19917;-78
2022/06/05 07:10:59;;;;;;;;;;;17.40;99.90;;;;;;5029929;28;19916;-78
2022/06/05 07:13:25;;;;;;;;;;;17.60;99.90;;;;;;5065870;28;19920;-76
2022/06/05 07:15:54;;;;;;;;;;;17.70;99.90;;;;;;5055405;28;20362;-77
2022/06/05 07:18:19;;;;;;;;;;;17.90;99.90;;;;;;5020635;28;19923;-77
2022/06/05 07:20:45;;;;;;;;;;;18.00;99.90;;;;;;5037549;28;19970;-76
2022/06/05 07:23:11;;;;;;;;;;;18.10;99.90;;;;;;5035057;28;19929;-77
2022/06/05 07:25:37;;;;;;;;;;;18.20;99.90;;;;;;5026233;28;19923;-79
2022/06/05 07:28:03;;;;;;;;;;;18.20;99.90;;;;;;5005463;28;19917;-79
2022/06/05 07:30:28;;;;;;;;;;;18.40;99.90;;;;;;5051385;28;20385;-77
2022/06/05 07:32:54;;;;;;;;;;;18.50;99.90;;;;;;5039017;28;20342;-77
2022/06/05 07:35:20;;;;;;;;;;;18.60;99.90;;;;;;5012397;28;19932;-76
2022/06/05 07:37:46;;;;;;;;;;;18.60;99.90;;;;;;5053553;28;20022;-76
2022/06/05 07:40:18;;;;;;;;;;;18.60;99.90;;;;;;5070865;28;20384;-76
2022/06/05 07:42:44;;;;;;;;;;;18.70;99.90;;;;;;5003529;28;19921;-78
2022/06/05 07:45:10;;;;;;;;;;;18.70;99.90;;;;;;5035131;28;20362;-76
2022/06/05 07:47:36;;;;;;;;;;;18.70;99.90;;;;;;5034758;28;20029;-78
2022/06/05 07:50:08;;;;;;;;;;;18.70;99.90;;;;;;5061648;28;19917;-78
2022/06/05 07:55:18;;;;;;;;;;;18.70;99.90;;;;;;5038571;28;20374;-76
2022/06/05 07:57:43;;;;;;;;;;;18.80;99.90;;;;;;5053588;28;19955;-75
2022/06/05 08:00:11;;;;;;;;;;;18.90;99.90;;;;;;5036426;28;19939;-76
2022/06/05 08:02:36;;;;;;;;;;;19.00;99.90;;;;;;5037138;28;19927;-74
2022/06/05 08:05:03;;;;;;;;;;;19.00;99.90;;;;;;5028601;28;19916;-78
2022/06/05 08:07:30;;;;;;;;;;;19.10;99.90;;;;;;5038171;28;19923;-75
2022/06/05 08:09:55;;;;;;;;;;;19.20;99.90;;;;;;5036645;28;19924;-76
2022/06/05 08:12:22;;;;;;;;;;;19.30;99.90;;;;;;5023539;28;19916;-79
2022/06/05 08:14:49;;;;;;;;;;;19.40;99.90;;;;;;5019567;28;19964;-81
2022/06/05 08:17:17;;;;;;;;;;;19.50;99.90;;;;;;5042412;28;19940;-76
2022/06/05 08:19:43;;;;;;;;;;;19.70;99.90;;;;;;5019543;28;20262;-78
2022/06/05 08:22:10;;;;;;;;;;;19.80;99.90;;;;;;5028787;28;20541;-78
2022/06/05 08:24:35;;;;;;;;;;;20.00;99.90;;;;;;5052992;28;19920;-77
2022/06/05 08:27:01;;;;;;;;;;;20.00;99.90;;;;;;5028299;28;19926;-77
2022/06/05 08:29:27;;;;;;;;;;;20.00;99.90;;;;;;5050450;28;20341;-78
2022/06/05 08:31:53;;;;;;;;;;;20.10;99.90;;;;;;5045152;28;20357;-77
2022/06/05 08:34:19;;;;;;;;;;;20.30;99.90;;;;;;5016901;28;20023;-77
2022/06/05 08:36:45;;;;;;;;;;;20.40;99.90;;;;;;5036196;28;20012;-74
2022/06/05 08:41:55;;;;;;;;;;;20.80;99.90;;;;;;5016282;28;19923;-75
2022/06/05 08:44:20;;;;;;;;;;;20.90;99.90;;;;;;5032129;28;20019;-77
2022/06/05 08:46:49;;;;;;;;;;;21.00;99.90;;;;;;5051014;28;19978;-77
2022/06/05 08:49:35;;;;;;;;;;;21.20;99.90;;;;;;5020087;28;19924;-78
2022/06/05 08:52:05;;;;;;;;;;;21.30;99.90;;;;;;5016253;28;19927;-76
2022/06/05 08:54:31;;;;;;;;;;;21.40;99.90;;;;;;5030922;28;19921;-76
2022/06/05 08:57:03;;;;;;;;;;;21.60;99.90;;;;;;5027806;28;19916;-74
2022/06/05 08:59:31;;;;;;;;;;;21.70;99.90;;;;;;5022401;28;19917;-77
2022/06/05 09:02:08;;;;;;;;;;;21.80;99.90;;;;;;5055483;28;19917;-75
2022/06/05 09:04:44;;;;;;;;;;;21.80;99.90;;;;;;5048615;28;19917;-78
2022/06/05 09:07:12;;;;;;;;;;;22.00;99.90;;;;;;5034913;28;20400;-78
2022/06/05 09:09:47;;;;;;;;;;;22.20;99.90;;;;;;5008870;28;19924;-77
2022/06/05 09:12:16;;;;;;;;;;;22.30;99.90;;;;;;5011988;28;19917;-77
2022/06/05 09:14:54;;;;;;;;;;;22.50;99.90;;;;;;5028023;28;19939;-78
2022/06/05 09:17:20;;;;;;;;;;;22.60;99.90;;;;;;5018897;28;19921;-76
2022/06/05 09:19:47;;;;;;;;;;;22.60;99.90;;;;;;5028687;28;20009;-78
2022/06/05 09:22:22;;;;;;;;;;;22.60;99.90;;;;;;5027038;28;19928;-76
2022/06/05 09:24:57;;;;;;;;;;;22.50;99.90;;;;;;5017448;28;19917;-75
2022/06/05 09:27:25;;;;;;;;;;;22.40;99.90;;;;;;5034408;28;20378;-79
2022/06/05 09:29:57;;;;;;;;;;;22.40;99.90;;;;;;5017758;28;19924;-77
2022/06/05 09:32:25;;;;;;;;;;;22.50;99.90;;;;;;4998389;28;19924;-78
2022/06/05 09:35:17;;;;;;;;;;;22.60;99.90;;;;;;5045412;28;20378;-75
2022/06/05 09:37:48;;;;;;;;;;;22.70;99.90;;;;;;5013528;28;19917;-76
2022/06/05 09:40:18;;;;;;;;;;;22.80;99.90;;;;;;5034767;28;19916;-75
2022/06/05 09:42:47;;;;;;;;;;;23.00;99.90;;;;;;5017880;28;20369;-77
2022/06/05 09:45:23;;;;;;;;;;;23.10;99.90;;;;;;5026739;28;19960;-75
2022/06/05 09:48:14;;;;;;;;;;;23.10;99.90;;;;;;5019524;28;20290;-79
2022/06/05 09:50:40;;;;;;;;;;;23.20;99.90;;;;;;5016099;28;19955;-77
2022/06/05 09:53:08;;;;;;;;;;;23.40;99.90;;;;;;5027348;28;19960;-78
2022/06/05 09:55:46;;;;;;;;;;;23.60;99.90;;;;;;5031845;28;19923;-79
2022/06/05 09:58:31;;;;;;;;;;;23.70;99.90;;;;;;5034859;28;20329;-77
2022/06/05 10:00:58;;;;;;;;;;;23.80;99.90;;;;;;5031313;28;20306;-79
2022/06/05 10:03:42;;;;;;;;;;;23.90;99.90;;;;;;5066995;28;20321;-76
2022/06/05 10:06:11;;;;;;;;;;;24.10;99.90;;;;;;5024790;28;19983;-77
2022/06/05 10:09:04;;;;;;;;;;;24.20;99.90;;;;;;5047679;28;20001;-79
2022/06/05 10:11:50;;;;;;;;;;;24.30;99.90;;;;;;4991897;28;19967;-78
2022/06/05 10:14:25;;;;;;;;;;;24.30;99.90;;;;;;5022845;28;20015;-78
2022/06/05 10:16:57;;;;;;;;;;;24.20;99.90;;;;;;5031994;28;19925;-78
2022/06/05 10:19:29;;;;;;;;;;;24.10;99.90;;;;;;5047011;28;19917;-76
2022/06/05 10:21:58;;;;;;;;;;;24.00;99.90;;;;;;5061226;28;19999;-76
2022/06/05 10:24:27;;;;;;;;;;;24.10;99.90;;;;;;5014162;28;19917;-76
2022/06/05 10:26:54;;;;;;;;;;;24.30;99.90;;;;;;5014595;28;19924;-75
2022/06/05 10:29:22;;;;;;;;;;;24.40;99.90;;;;;;5026476;28;19916;-75
2022/06/05 10:31:51;;;;;;;;;;;24.40;99.90;;;;;;5038922;28;19928;-78
2022/06/05 10:34:38;;;;;;;;;;;24.60;99.90;;;;;;5017068;28;19923;-76
2022/06/05 10:37:19;;;;;;;;;;;24.80;99.90;;;;;;5014592;28;19917;-76
2022/06/05 10:39:53;;;;;;;;;;;24.90;99.90;;;;;;5068913;28;19990;-78
2022/06/05 10:42:26;;;;;;;;;;;25.00;99.90;;;;;;5037890;28;19931;-75
2022/06/05 10:45:10;;;;;;;;;;;25.00;99.90;;;;;;5013930;28;19960;-75
2022/06/05 10:48:01;;;;;;;;;;;25.10;99.90;;;;;;5021465;28;20329;-80
2022/06/05 10:50:33;;;;;;;;;;;25.10;99.90;;;;;;5021435;28;19971;-78
2022/06/05 10:53:18;;;;;;;;;;;25.20;99.90;;;;;;5015139;28;19931;-76
2022/06/05 10:55:56;;;;;;;;;;;25.30;99.90;;;;;;5045971;28;19917;-76
2022/06/05 10:58:51;;;;;;;;;;;25.30;99.90;;;;;;5020895;28;19966;-76
2022/06/05 11:01:20;;;;;;;;;;;25.30;99.90;;;;;;5025413;28;19917;-76
2022/06/05 11:03:54;;;;;;;;;;;25.20;99.90;;;;;;5035159;28;20302;-74
2022/06/05 11:06:27;;;;;;;;;;;25.20;99.90;;;;;;5060397;28;20352;-77
2022/06/05 11:09:04;;;;;;;;;;;25.20;99.90;;;;;;5053514;28;19917;-78
2022/06/05 11:14:51;;;;;;;;;;;25.20;99.90;;;;;;5042178;28;19960;-79
2022/06/05 11:17:20;;;;;;;;;;;25.20;99.90;;;;;;5037179;28;19964;-77
2022/06/05 11:19:54;;;;;;;;;;;25.20;99.90;;;;;;5023559;28;20306;-77
2022/06/05 11:22:21;;;;;;;;;;;25.30;99.90;;;;;;5028849;28;20344;-77
2022/06/05 11:24:51;;;;;;;;;;;25.30;99.90;;;;;;5019192;28;19999;-76
2022/06/05 11:27:36;;;;;;;;;;;25.30;99.90;;;;;;5037177;28;19960;-78
2022/06/05 11:30:10;;;;;;;;;;;25.30;99.90;;;;;;5065161;28;19968;-77
2022/06/05 11:32:47;;;;;;;;;;;25.40;99.90;;;;;;5050393;28;19967;-76
2022/06/05 11:35:16;;;;;;;;;;;25.50;99.90;;;;;;5042519;28;20287;-77
2022/06/05 11:37:41;;;;;;;;;;;25.60;99.90;;;;;;5022211;28;19921;-74
2022/06/05 11:40:19;;;;;;;;;;;25.60;99.90;;;;;;5035423;28;20027;-75
2022/06/05 11:43:04;;;;;;;;;;;25.50;99.90;;;;;;5021042;28;19925;-74
2022/06/05 11:45:32;;;;;;;;;;;25.50;99.90;;;;;;5023684;28;19924;-80
2022/06/05 11:48:11;;;;;;;;;;;25.50;99.90;;;;;;5028325;28;20303;-77
2022/06/05 11:50:42;;;;;;;;;;;25.50;99.90;;;;;;5019778;28;19923;-75
2022/06/05 11:53:26;;;;;;;;;;;25.50;99.90;;;;;;4981344;28;19965;-75
2022/06/05 11:55:58;;;;;;;;;;;25.60;99.90;;;;;;5026686;28;19917;-75
2022/06/05 11:58:28;;;;;;;;;;;25.70;99.90;;;;;;5016733;28;20369;-77
2022/06/05 12:01:00;;;;;;;;;;;25.80;99.90;;;;;;5050563;28;19917;-77
2022/06/05 12:03:36;;;;;;;;;;;25.90;99.90;;;;;;5048898;28;19924;-74
2022/06/05 12:06:13;;;;;;;;;;;25.90;99.90;;;;;;5037368;28;19921;-78
2022/06/05 12:08:41;;;;;;;;;;;25.90;99.90;;;;;;5048582;28;20332;-75
2022/06/05 12:11:11;;;;;;;;;;;25.90;99.90;;;;;;5027125;28;19924;-80
2022/06/05 12:13:47;;;;;;;;;;;25.80;99.90;;;;;;5047948;28;20284;-79
2022/06/05 12:16:19;;;;;;;;;;;25.80;99.90;;;;;;5034859;28;19999;-77
2022/06/05 12:18:53;;;;;;;;;;;25.60;99.90;;;;;;5049295;28;19917;-80
2022/06/05 12:21:25;;;;;;;;;;;25.60;99.90;;;;;;5050146;28;19917;-79
2022/06/05 12:24:20;;;;;;;;;;;25.50;99.90;;;;;;5064761;28;19925;-75
2022/06/05 12:26:52;;;;;;;;;;;25.50;99.90;;;;;;5024804;28;19923;-76
2022/06/05 12:29:28;;;;;;;;;;;25.50;99.90;;;;;;5035515;28;19923;-77
2022/06/05 12:32:13;;;;;;;;;;;25.60;99.90;;;;;;5011875;28;19965;-78
2022/06/05 12:34:44;;;;;;;;;;;25.70;99.90;;;;;;5035464;28;19971;-75
2022/06/05 12:37:10;;;;;;;;;;;25.70;99.90;;;;;;5025011;28;19962;-75
2022/06/05 12:39:40;;;;;;;;;;;25.90;99.90;;;;;;5047042;28;19916;-74
2022/06/05 12:42:27;;;;;;;;;;;26.00;99.90;;;;;;5061722;28;19916;-78
2022/06/05 12:44:54;;;;;;;;;;;26.00;99.90;;;;;;5045865;28;19921;-77
2022/06/05 12:47:26;;;;;;;;;;;26.10;99.90;;;;;;5012335;28;19975;-76
2022/06/05 12:49:51;;;;;;;;;;;26.20;99.90;;;;;;5015256;28;20252;-76
2022/06/05 12:52:36;;;;;;;;;;;26.20;98.00;;;;;;5045362;28;19967;-77
2022/06/05 12:55:01;;;;;;;;;;;26.20;99.90;;;;;;5064461;28;19916;-78
2022/06/05 12:57:30;;;;;;;;;;;26.20;99.90;;;;;;5025370;28;19967;-75
2022/06/05 12:59:59;;;;;;;;;;;26.10;99.90;;;;;;5012843;28;19963;-77
2022/06/05 13:02:34;;;;;;;;;;;26.10;99.90;;;;;;5028944;28;19924;-76
2022/06/05 13:05:21;;;;;;;;;;;26.10;99.90;;;;;;5019917;28;19917;-78
2022/06/05 13:07:49;;;;;;;;;;;26.00;99.90;;;;;;5001083;28;20000;-75
2022/06/05 13:10:28;;;;;;;;;;;26.00;99.90;;;;;;5012457;28;19917;-79
2022/06/05 13:12:59;;;;;;;;;;;25.90;99.90;;;;;;5012045;28;19924;-78
2022/06/05 13:15:52;;;;;;;;;;;25.80;99.90;;;;;;5030332;28;20373;-77
2022/06/05 13:18:18;;;;;;;;;;;25.70;99.90;;;;;;5027586;28;19916;-75
2022/06/05 13:20:59;;;;;;;;;;;25.80;99.90;;;;;;5032266;28;20012;-78
2022/06/05 13:23:38;;;;;;;;;;;25.70;99.90;;;;;;5034872;28;19932;-76
2022/06/05 13:26:11;;;;;;;;;;;25.60;99.90;;;;;;5017785;28;20301;-79
2022/06/05 13:28:48;;;;;;;;;;;25.60;99.90;;;;;;5018691;28;19924;-76
2022/06/05 13:31:28;;;;;;;;;;;25.50;99.90;;;;;;5015623;28;20271;-75
2022/06/05 13:34:02;;;;;;;;;;;25.50;99.90;;;;;;5011318;28;19967;-73
2022/06/05 13:36:40;;;;;;;;;;;25.40;99.90;;;;;;5012060;28;19921;-77
2022/06/05 13:39:17;;;;;;;;;;;25.40;99.90;;;;;;4995939;28;20000;-77
2022/06/05 13:41:51;;;;;;;;;;;25.40;99.90;;;;;;5004250;28;19940;-77
2022/06/05 13:44:21;;;;;;;;;;;25.50;99.90;;;;;;5032722;28;19921;-77
2022/06/05 13:46:53;;;;;;;;;;;25.50;99.90;;;;;;5011834;28;20306;-78
2022/06/05 13:49:57;;;;;;;;;;;25.60;99.90;;;;;;5014586;28;19964;-79
2022/06/05 13:52:41;;;;;;;;;;;25.60;99.90;;;;;;4971648;28;20393;-75
2022/06/05 13:55:16;;;;;;;;;;;25.70;99.90;;;;;;4984823;28;19931;-77
2022/06/05 13:57:41;;;;;;;;;;;25.90;99.90;;;;;;5019967;28;19920;-77
2022/06/05 14:00:12;;;;;;;;;;;26.10;99.90;;;;;;5034666;28;20265;-77
2022/06/05 14:02:42;;;;;;;;;;;26.20;99.90;;;;;;5015482;28;19920;-78
2022/06/05 14:05:11;;;;;;;;;;;26.40;99.90;;;;;;5042648;28;19971;-75
2022/06/05 14:07:51;;;;;;;;;;;26.60;99.90;;;;;;5001505;28;19967;-77
2022/06/05 14:10:20;;;;;;;;;;;26.70;98.60;;;;;;5050049;28;19917;-79
2022/06/05 14:13:18;;;;;;;;;;;26.80;99.80;;;;;;5024287;28;19952;-75
2022/06/05 14:15:47;;;;;;;;;;;26.90;98.90;;;;;;4976981;28;19916;-78
2022/06/05 14:18:45;;;;;;;;;;;27.20;99.30;;;;;;5051580;28;19916;-79
2022/06/05 14:21:20;;;;;;;;;;;27.20;94.70;;;;;;5013446;28;19921;-76
2022/06/05 14:23:48;;;;;;;;;;;27.10;98.10;;;;;;5008079;28;19926;-79
2022/06/05 14:26:17;;;;;;;;;;;27.00;96.90;;;;;;4994655;28;20395;-77
2022/06/05 14:28:44;;;;;;;;;;;26.90;96.70;;;;;;5012945;28;20025;-76
2022/06/05 14:31:14;;;;;;;;;;;26.80;96.40;;;;;;5012332;28;20262;-79
2022/06/05 14:33:54;;;;;;;;;;;26.50;97.00;;;;;;5001306;28;19996;-77
2022/06/05 14:36:32;;;;;;;;;;;26.40;99.80;;;;;;5013486;28;20265;-78
2022/06/05 14:39:01;;;;;;;;;;;26.20;94.30;;;;;;5013833;28;20413;-76
2022/06/05 14:41:29;;;;;;;;;;;26.00;96.70;;;;;;5007189;28;20023;-77
2022/06/05 14:43:58;;;;;;;;;;;25.90;96.80;;;;;;5006472;28;19921;-79
2022/06/05 14:46:26;;;;;;;;;;;25.90;98.40;;;;;;4993662;28;19917;-76
2022/06/05 14:48:54;;;;;;;;;;;25.80;96.00;;;;;;4975450;28;19921;-77
2022/06/05 14:51:23;;;;;;;;;;;25.70;99.10;;;;;;5003588;28;19916;-76